createdAt,value
2022-12-29T00:02:01.266Z,83.79
2022-12-29T00:05:08.153Z,82.81
2022-12-29T00:08:14.448Z,82.16
2022-12-29T00:11:18.921Z,81.88
2022-12-29T00:14:40.070Z,81.52
2022-12-29T00:17:45.196Z,81.32
2022-12-29T00:21:09.161Z,81.49
2022-12-29T00:24:33.175Z,81.47
2022-12-29T00:27:53.293Z,80.91
2022-12-29T00:31:18.210Z,81.13
2022-12-29T00:34:38.426Z,80.93
2022-12-29T00:38:02.039Z,79.60
2022-12-29T00:41:23.818Z,79.89
2022-12-29T00:44:26.537Z,79.42
2022-12-29T00:47:29.228Z,79.01
2022-12-29T00:50:31.875Z,78.67
2022-12-29T00:53:34.549Z,78.32
2022-12-29T00:56:38.611Z,78.74
2022-12-29T00:59:44.667Z,78.67
2022-12-29T01:02:47.779Z,78.93
2022-12-29T01:05:50.564Z,78.31
2022-12-29T01:09:09.900Z,78.97
2022-12-29T01:12:14.252Z,78.95
2022-12-29T01:15:19.745Z,79.43
2022-12-29T01:18:23.922Z,79.27
2022-12-29T01:21:26.680Z,78.93
2022-12-29T01:24:30.048Z,79.75
2022-12-29T01:27:34.264Z,80.27
2022-12-29T01:30:39.726Z,80.87
2022-12-29T01:33:43.337Z,81.24
2022-12-29T01:36:51.261Z,81.80
2022-12-29T01:39:55.877Z,81.92
2022-12-29T01:42:59.922Z,82.59
2022-12-29T01:46:14.033Z,82.95
2022-12-29T01:49:22.852Z,83.09
2022-12-29T01:52:29.097Z,83.45
2022-12-29T01:55:35.294Z,83.65
2022-12-29T01:58:43.817Z,83.46
2022-12-29T02:01:46.810Z,83.91
2022-12-29T02:04:49.923Z,83.89
2022-12-29T02:07:54.147Z,83.98
2022-12-29T02:10:58.572Z,84.02
2022-12-29T02:14:03.846Z,84.45
2022-12-29T02:17:16.047Z,84.14
2022-12-29T02:20:52.961Z,84.43
2022-12-29T02:24:23.583Z,84.49
2022-12-29T02:27:42.241Z,84.88
2022-12-29T02:30:53.505Z,85.23
2022-12-29T02:34:09.164Z,85.82
2022-12-29T02:37:33.549Z,86.25
2022-12-29T02:40:43.619Z,86.67
2022-12-29T02:43:52.847Z,86.82
2022-12-29T02:47:03.765Z,87.40
2022-12-29T02:50:14.371Z,87.51
2022-12-29T02:53:39.584Z,87.59
2022-12-29T02:56:41.589Z,87.96
2022-12-29T02:59:45.626Z,88.00
2022-12-29T03:03:10.099Z,88.57
2022-12-29T03:06:27.805Z,88.65
2022-12-29T03:09:43.792Z,89.28
2022-12-29T03:13:09.627Z,88.94
2022-12-29T03:16:22.053Z,89.35
2022-12-29T03:19:31.426Z,89.54
2022-12-29T03:22:41.526Z,89.07
2022-12-29T03:25:50.978Z,89.07
2022-12-29T03:28:55.522Z,89.07
2022-12-29T03:32:02.049Z,89.40
2022-12-29T03:35:09.420Z,89.26
2022-12-29T03:38:16.861Z,89.57
2022-12-29T03:41:25.105Z,89.36
2022-12-29T03:44:34.562Z,89.39
2022-12-29T03:47:40.288Z,89.20
2022-12-29T03:50:51.782Z,88.88
2022-12-29T03:53:55.254Z,89.01
2022-12-29T03:56:58.161Z,88.82
2022-12-29T04:00:00.881Z,88.73
2022-12-29T04:03:06.484Z,88.96
2022-12-29T04:06:10.580Z,88.54
2022-12-29T04:09:13.338Z,87.73
2022-12-29T04:12:25.144Z,87.96
2022-12-29T04:15:28.906Z,87.67
2022-12-29T04:18:31.736Z,87.34
2022-12-29T04:21:35.800Z,86.19
2022-12-29T04:24:44.720Z,86.29
2022-12-29T04:27:53.312Z,86.33
2022-12-29T04:30:56.441Z,86.25
2022-12-29T04:34:01.106Z,85.94
2022-12-29T04:37:10.694Z,86.36
2022-12-29T04:40:14.008Z,85.67
2022-12-29T04:43:31.008Z,85.34
2022-12-29T04:46:33.781Z,84.68
2022-12-29T04:49:36.696Z,84.59
2022-12-29T04:52:40.769Z,84.58
2022-12-29T04:55:46.934Z,84.04
2022-12-29T04:58:49.634Z,84.01
2022-12-29T05:01:52.345Z,83.97
2022-12-29T05:04:56.432Z,83.53
2022-12-29T05:08:00.439Z,83.48
2022-12-29T05:11:03.872Z,83.55
2022-12-29T05:14:08.716Z,83.39
2022-12-29T05:17:11.428Z,83.38
2022-12-29T05:20:14.168Z,83.21
2022-12-29T05:23:18.637Z,82.69
2022-12-29T05:26:21.439Z,83.44
2022-12-29T05:29:24.132Z,83.37
2022-12-29T05:32:33.035Z,82.99
2022-12-29T05:35:35.926Z,82.80
2022-12-29T05:38:39.946Z,82.29
2022-12-29T05:41:50.102Z,82.17
2022-12-29T05:44:54.774Z,82.52
2022-12-29T05:48:04.992Z,82.24
2022-12-29T05:51:07.741Z,82.23
2022-12-29T05:54:11.855Z,82.32
2022-12-29T05:57:14.505Z,82.06
2022-12-29T06:00:18.229Z,82.35
2022-12-29T06:03:23.333Z,82.77
2022-12-29T06:06:26.197Z,82.77
2022-12-29T06:09:30.408Z,82.58
2022-12-29T06:12:33.131Z,82.34
2022-12-29T06:15:35.926Z,81.34
2022-12-29T06:18:38.652Z,81.82
2022-12-29T06:21:41.391Z,82.21
2022-12-29T06:24:45.374Z,81.97
2022-12-29T06:27:48.106Z,81.80
2022-12-29T06:30:50.789Z,82.10
2022-12-29T06:33:53.742Z,81.50
2022-12-29T06:37:01.072Z,81.70
2022-12-29T06:40:12.737Z,81.91
2022-12-29T06:43:15.634Z,81.36
2022-12-29T06:46:18.351Z,81.38
2022-12-29T06:49:23.310Z,81.27
2022-12-29T06:52:26.103Z,81.55
2022-12-29T06:55:30.166Z,80.63
2022-12-29T06:58:33.203Z,80.86
2022-12-29T07:01:38.178Z,80.98
2022-12-29T07:04:41.184Z,81.08
2022-12-29T07:07:43.974Z,80.92
2022-12-29T07:10:49.494Z,80.97
2022-12-29T07:13:52.934Z,80.46
2022-12-29T07:16:58.088Z,80.57
2022-12-29T07:20:00.859Z,80.55
2022-12-29T07:23:04.275Z,80.66
2022-12-29T07:26:10.327Z,80.95
2022-12-29T07:29:13.079Z,80.87
2022-12-29T07:32:15.845Z,80.09
2022-12-29T07:35:18.665Z,79.64
2022-12-29T07:38:21.335Z,80.36
2022-12-29T07:41:25.537Z,79.90
2022-12-29T07:44:28.543Z,79.21
2022-12-29T07:47:31.292Z,79.26
2022-12-29T07:50:34.086Z,79.52
2022-12-29T07:53:37.145Z,79.38
2022-12-29T07:56:41.508Z,78.81
2022-12-29T07:59:44.340Z,77.95
2022-12-29T08:02:47.150Z,77.75
2022-12-29T08:05:50.601Z,77.61
2022-12-29T08:08:53.327Z,77.69
2022-12-29T08:11:57.621Z,77.70
2022-12-29T08:15:01.655Z,77.41
2022-12-29T08:18:07.454Z,76.93
2022-12-29T08:21:10.206Z,77.19
2022-12-29T08:24:13.274Z,76.12
2022-12-29T08:27:20.710Z,75.25
2022-12-29T08:30:24.384Z,75.07
2022-12-29T08:33:27.409Z,74.38
2022-12-29T08:36:30.090Z,74.07
2022-12-29T08:39:32.833Z,73.82
2022-12-29T08:42:37.388Z,72.75
2022-12-29T08:45:40.072Z,72.58
2022-12-29T08:48:42.857Z,73.07
2022-12-29T08:51:45.558Z,72.04
2022-12-29T08:54:48.383Z,71.79
2022-12-29T08:57:53.102Z,71.70
2022-12-29T09:00:57.574Z,71.62
2022-12-29T09:04:17.443Z,71.71
2022-12-29T09:07:21.021Z,70.81
2022-12-29T09:10:25.177Z,71.11
2022-12-29T09:13:32.549Z,71.53
2022-12-29T09:16:36.385Z,71.46
2022-12-29T09:19:39.268Z,71.97
2022-12-29T09:22:42.625Z,71.29
2022-12-29T09:25:45.601Z,71.63
2022-12-29T09:28:49.796Z,72.27
2022-12-29T09:31:52.546Z,72.37
2022-12-29T09:34:55.448Z,72.48
2022-12-29T09:37:58.183Z,72.50
2022-12-29T09:41:07.447Z,72.93
2022-12-29T09:44:19.344Z,72.35
2022-12-29T09:47:23.137Z,72.24
2022-12-29T09:50:32.277Z,72.03
2022-12-29T09:53:40.042Z,71.08
2022-12-29T09:56:42.974Z,71.29
2022-12-29T09:59:48.691Z,71.01
2022-12-29T10:02:55.712Z,71.00
2022-12-29T10:06:05.614Z,71.10
2022-12-29T10:09:17.460Z,71.30
2022-12-29T10:12:31.558Z,71.45
2022-12-29T10:15:44.231Z,71.34
2022-12-29T10:19:18.204Z,71.44
2022-12-29T10:22:34.483Z,72.47
2022-12-29T10:25:40.880Z,73.37
2022-12-29T10:28:47.670Z,73.87
2022-12-29T10:31:58.293Z,73.78
2022-12-29T10:35:05.508Z,74.23
2022-12-29T10:38:17.600Z,74.57
2022-12-29T10:41:25.527Z,74.06
2022-12-29T10:44:33.002Z,74.18
2022-12-29T10:47:43.857Z,74.14
2022-12-29T10:50:46.843Z,74.30
2022-12-29T10:53:53.543Z,74.74
2022-12-29T10:57:02.077Z,74.83
2022-12-29T11:00:13.951Z,75.04
2022-12-29T11:04:00.130Z,75.19
2022-12-29T11:07:09.506Z,75.03
2022-12-29T11:10:22.274Z,75.25
2022-12-29T11:13:33.470Z,75.04
2022-12-29T11:16:39.394Z,75.41
2022-12-29T11:19:42.067Z,75.49
2022-12-29T11:22:47.239Z,75.51
2022-12-29T11:26:08.756Z,75.33
2022-12-29T11:29:27.711Z,75.27
2022-12-29T11:32:31.295Z,74.70
2022-12-29T11:35:37.483Z,73.95
2022-12-29T11:38:44.437Z,73.81
2022-12-29T11:41:54.690Z,73.62
2022-12-29T11:44:57.460Z,73.17
2022-12-29T11:48:03.220Z,73.49
2022-12-29T11:51:06.281Z,73.89
2022-12-29T11:54:19.465Z,74.02
2022-12-29T11:57:25.934Z,73.41
2022-12-29T12:00:30.726Z,73.23
2022-12-29T12:03:37.415Z,73.69
2022-12-29T12:06:47.131Z,74.01
2022-12-29T12:09:58.995Z,74.34
2022-12-29T12:13:12.166Z,74.72
2022-12-29T12:16:19.239Z,75.52
2022-12-29T12:19:31.887Z,75.43
2022-12-29T12:22:39.295Z,75.43
2022-12-29T12:25:50.019Z,74.80
2022-12-29T12:28:57.774Z,75.35
2022-12-29T12:32:06.733Z,75.22
2022-12-29T12:35:18.184Z,75.53
2022-12-29T12:38:35.832Z,75.22
2022-12-29T12:41:51.267Z,75.16
2022-12-29T12:45:06.422Z,75.25
2022-12-29T12:48:27.144Z,75.66
2022-12-29T12:51:39.282Z,76.01
2022-12-29T12:54:59.856Z,76.34
2022-12-29T12:58:14.197Z,77.33
2022-12-29T13:01:41.380Z,77.67
2022-12-29T13:05:06.409Z,78.71
2022-12-29T13:08:30.098Z,78.83
2022-12-29T13:11:48.273Z,79.56
2022-12-29T13:15:04.396Z,79.77
2022-12-29T13:18:18.093Z,80.36
2022-12-29T13:21:34.090Z,80.18
2022-12-29T13:24:48.023Z,80.11
2022-12-29T13:27:57.912Z,80.08
2022-12-29T13:31:08.086Z,79.57
2022-12-29T13:34:23.526Z,79.69
2022-12-29T13:37:30.072Z,79.66
2022-12-29T13:40:36.228Z,79.22
2022-12-29T13:43:44.205Z,78.78
2022-12-29T13:46:49.833Z,78.70
2022-12-29T13:49:54.803Z,78.34
2022-12-29T13:53:04.012Z,78.46
2022-12-29T13:56:10.967Z,78.29
2022-12-29T13:59:21.342Z,77.96
2022-12-29T14:02:39.925Z,78.22
2022-12-29T14:05:47.727Z,77.63
2022-12-29T14:08:52.096Z,77.53
2022-12-29T14:11:55.209Z,77.75
2022-12-29T14:15:06.246Z,78.01
2022-12-29T14:18:18.820Z,78.06
2022-12-29T14:21:24.363Z,77.79
2022-12-29T14:24:42.392Z,78.06
2022-12-29T14:27:53.230Z,78.13
2022-12-29T14:30:57.321Z,78.11
2022-12-29T14:34:27.825Z,78.35
2022-12-29T14:37:32.538Z,78.87
2022-12-29T14:40:35.788Z,78.70
2022-12-29T14:43:39.082Z,78.82
2022-12-29T14:46:48.232Z,78.85
2022-12-29T14:49:53.497Z,79.06
2022-12-29T14:53:02.912Z,79.24
2022-12-29T14:56:06.814Z,79.04
2022-12-29T14:59:12.975Z,79.25
2022-12-29T15:02:20.934Z,79.74
2022-12-29T15:05:35.881Z,79.89
2022-12-29T15:08:41.371Z,80.75
2022-12-29T15:11:51.693Z,81.32
2022-12-29T15:14:56.681Z,81.32
2022-12-29T15:17:59.354Z,81.60
2022-12-29T15:21:05.899Z,81.69
2022-12-29T15:24:12.956Z,81.85
2022-12-29T15:27:18.707Z,81.80
2022-12-29T15:30:22.268Z,82.02
2022-12-29T15:33:28.240Z,82.31
2022-12-29T15:36:39.882Z,82.53
2022-12-29T15:39:42.912Z,82.32
2022-12-29T15:43:09.681Z,82.55
2022-12-29T15:46:13.225Z,82.66
2022-12-29T15:49:17.908Z,82.93
2022-12-29T15:52:23.500Z,82.95
2022-12-29T15:55:32.072Z,83.17
2022-12-29T15:58:45.539Z,83.51
2022-12-29T16:01:48.604Z,83.61
2022-12-29T16:05:16.681Z,83.80
2022-12-29T16:08:40.809Z,83.63
2022-12-29T16:11:47.028Z,84.16
2022-12-29T16:14:54.892Z,84.66
2022-12-29T16:17:58.013Z,85.06
2022-12-29T16:21:00.860Z,85.25
2022-12-29T16:24:10.912Z,85.23
2022-12-29T16:27:23.927Z,85.27
2022-12-29T16:30:33.864Z,85.72
2022-12-29T16:33:48.671Z,86.36
2022-12-29T16:36:57.042Z,86.58
2022-12-29T16:40:31.134Z,86.91
2022-12-29T16:43:36.133Z,86.74
2022-12-29T16:46:45.927Z,86.56
2022-12-29T16:49:55.541Z,86.70
2022-12-29T16:52:58.356Z,87.01
2022-12-29T16:56:06.130Z,87.54
2022-12-29T16:59:18.706Z,88.12
2022-12-29T17:02:24.450Z,88.80
2022-12-29T17:05:27.674Z,88.87
2022-12-29T17:08:30.408Z,88.84
2022-12-29T17:12:00.021Z,88.54
2022-12-29T17:15:10.934Z,88.42
2022-12-29T17:18:14.319Z,88.28
2022-12-29T17:21:17.175Z,88.54
2022-12-29T17:24:21.300Z,88.09
2022-12-29T17:27:29.752Z,88.27
2022-12-29T17:30:36.090Z,88.46
2022-12-29T17:33:42.746Z,88.15
2022-12-29T17:36:45.532Z,88.20
2022-12-29T17:39:48.346Z,88.16
2022-12-29T17:42:55.993Z,88.51
2022-12-29T17:45:59.991Z,88.22
2022-12-29T17:49:03.870Z,88.32
2022-12-29T17:52:06.747Z,88.32
2022-12-29T17:55:17.485Z,87.81
2022-12-29T17:58:23.368Z,87.96
2022-12-29T18:01:31.029Z,87.93
2022-12-29T18:04:36.678Z,87.64
2022-12-29T18:07:39.954Z,87.63
2022-12-29T18:10:43.561Z,87.50
2022-12-29T18:13:47.622Z,87.23
2022-12-29T18:16:50.432Z,87.29
2022-12-29T18:19:54.853Z,87.18
2022-12-29T18:22:58.825Z,86.93
2022-12-29T18:26:03.557Z,86.92
2022-12-29T18:29:07.862Z,87.32
2022-12-29T18:32:13.618Z,87.25
2022-12-29T18:35:20.431Z,86.95
2022-12-29T18:38:23.225Z,87.19
2022-12-29T18:41:29.161Z,86.89
2022-12-29T18:44:33.283Z,86.80
2022-12-29T18:47:35.990Z,87.15
2022-12-29T18:50:38.653Z,87.11
2022-12-29T18:53:41.379Z,86.90
2022-12-29T18:56:44.172Z,86.81
2022-12-29T18:59:48.281Z,87.23
2022-12-29T19:02:52.090Z,87.24
2022-12-29T19:05:54.828Z,87.37
2022-12-29T19:08:57.487Z,87.51
2022-12-29T19:12:00.210Z,87.81
2022-12-29T19:15:07.240Z,87.96
2022-12-29T19:18:43.995Z,88.44
2022-12-29T19:21:36.489Z,88.72
2022-12-29T19:24:39.249Z,88.62
2022-12-29T19:27:42.117Z,88.57
2022-12-29T19:30:51.691Z,88.96
2022-12-29T19:33:55.673Z,89.12
2022-12-29T19:36:58.387Z,88.96
2022-12-29T19:40:01.161Z,89.11
2022-12-29T19:43:03.999Z,88.98
2022-12-29T19:46:13.117Z,89.16
2022-12-29T19:49:15.811Z,89.00
2022-12-29T19:52:18.527Z,89.18
2022-12-29T19:55:21.448Z,89.54
2022-12-29T19:58:24.221Z,89.57
2022-12-29T20:01:28.768Z,89.44
2022-12-29T20:04:32.050Z,89.56
2022-12-29T20:07:34.813Z,89.68
2022-12-29T20:10:37.474Z,90.10
2022-12-29T20:13:40.847Z,89.90
2022-12-29T20:17:09.656Z,89.72
2022-12-29T20:20:09.087Z,89.83
2022-12-29T20:23:12.297Z,89.78
2022-12-29T20:26:16.989Z,89.89
2022-12-29T20:29:19.810Z,89.64
2022-12-29T20:32:25.356Z,89.94
2022-12-29T20:35:28.485Z,90.47
2022-12-29T20:38:31.237Z,91.19
2022-12-29T20:41:34.463Z,91.41
2022-12-29T20:44:38.185Z,91.70
2022-12-29T20:47:43.117Z,91.87
2022-12-29T20:50:45.809Z,91.84
2022-12-29T20:53:48.832Z,91.55
2022-12-29T20:56:52.399Z,91.33
2022-12-29T20:59:55.040Z,91.53
2022-12-29T21:02:59.610Z,91.38
2022-12-29T21:06:02.916Z,91.42
2022-12-29T21:09:06.598Z,91.31
2022-12-29T21:12:09.478Z,91.00
2022-12-29T21:15:14.400Z,91.07
2022-12-29T21:18:18.606Z,90.99
2022-12-29T21:21:23.523Z,90.60
2022-12-29T21:24:26.632Z,90.57
2022-12-29T21:27:29.299Z,90.48
2022-12-29T21:30:32.102Z,90.67
2022-12-29T21:33:37.524Z,90.81
2022-12-29T21:36:40.458Z,90.84
2022-12-29T21:39:43.543Z,90.59
2022-12-29T21:42:46.266Z,90.90
2022-12-29T21:45:50.881Z,90.48
2022-12-29T21:48:55.032Z,90.67
2022-12-29T21:51:57.791Z,90.99
2022-12-29T21:55:05.146Z,91.20
2022-12-29T21:58:25.452Z,91.35
2022-12-29T22:01:48.336Z,91.21
2022-12-29T22:05:09.860Z,91.19
2022-12-29T22:08:30.123Z,91.06
2022-12-29T22:11:50.301Z,90.86
2022-12-29T22:14:52.947Z,90.95
2022-12-29T22:17:56.950Z,90.62
2022-12-29T22:21:04.734Z,90.71
2022-12-29T22:24:08.656Z,90.41
2022-12-29T22:27:11.369Z,90.27
2022-12-29T22:30:15.076Z,90.31
2022-12-29T22:33:17.864Z,90.32
2022-12-29T22:36:22.006Z,90.48
2022-12-29T22:39:25.136Z,90.33
2022-12-29T22:42:27.850Z,90.48
2022-12-29T22:45:30.885Z,90.61
2022-12-29T22:48:34.061Z,90.25
2022-12-29T22:51:38.168Z,90.08
2022-12-29T22:54:40.897Z,90.12
2022-12-29T22:57:43.585Z,90.06
2022-12-29T23:00:46.842Z,90.38
2022-12-29T23:03:50.168Z,90.43
2022-12-29T23:06:54.336Z,90.35
2022-12-29T23:09:57.075Z,90.56
2022-12-29T23:12:59.765Z,90.41
2022-12-29T23:16:03.380Z,90.38
2022-12-29T23:19:06.876Z,90.43
2022-12-29T23:22:10.920Z,90.62
2022-12-29T23:25:13.689Z,90.64
2022-12-29T23:28:16.640Z,90.30
2022-12-29T23:31:19.634Z,90.63
2022-12-29T23:34:22.319Z,90.45
2022-12-29T23:37:26.340Z,90.91
2022-12-29T23:40:29.058Z,90.74
2022-12-29T23:43:31.868Z,90.57
2022-12-29T23:46:35.612Z,91.09
2022-12-29T23:49:38.520Z,90.58
2022-12-29T23:52:42.525Z,90.71
2022-12-29T23:55:45.598Z,91.06
2022-12-29T23:58:48.410Z,91.01
